Time;durP1;ratioP1;P1;durP2;ratioP2;P2;SDS_P1;SDS_P2;PMS_P1;PMS_P2;Temp;Humidity;BMP_temperature;BMP_pressure;BME280_temperature;BME280_humidity;BME280_pressure;Samples;Min_cycle;Max_cycle;Signal;HPM_P1;HPM_P2
2022/06/05 00:02:20;;;;;;;11.68;9.10;;;11.20;99.90;;;;;;4788383;29;20506;-67
2022/06/05 00:04:56;;;;;;;14.35;9.52;;;11.20;99.90;;;;;;4740331;29;20171;-67
2022/06/05 00:07:42;;;;;;;12.35;9.20;;;11.20;99.90;;;;;;4790583;29;20125;-67
2022/06/05 00:10:11;;;;;;;15.82;9.27;;;11.20;99.90;;;;;;4807906;29;20054;-66
2022/06/05 00:13:11;;;;;;;12.35;10.07;;;11.20;99.90;;;;;;4791773;29;20442;-66
2022/06/05 00:15:40;;;;;;;15.88;9.80;;;11.20;99.90;;;;;;4792132;29;20059;-68
2022/06/05 00:18:09;;;;;;;16.70;9.73;;;11.20;99.90;;;;;;4790905;29;20058;-67
2022/06/05 00:36:36;;;;;;;15.23;9.18;;;11.10;99.90;;;;;;4797969;29;20045;-66
2022/06/05 00:39:19;;;;;;;11.65;9.70;;;11.10;99.90;;;;;;4791787;29;20058;-66
2022/06/05 00:41:45;;;;;;;15.07;9.20;;;11.10;99.90;;;;;;4807951;29;20129;-67
2022/06/05 00:44:16;;;;;;;16.92;9.85;;;11.10;99.90;;;;;;4790774;29;20093;-65
2022/06/05 00:46:50;;;;;;;12.60;10.27;;;11.10;99.90;;;;;;4791595;29;20063;-68
2022/06/05 00:49:17;;;;;;;15.25;9.43;;;11.10;99.90;;;;;;4791975;29;20089;-65
2022/06/05 00:52:10;;;;;;;13.57;9.52;;;11.10;99.90;;;;;;4805881;29;20082;-67
2022/06/05 00:54:36;;;;;;;15.63;10.63;;;11.00;99.90;;;;;;4789983;29;20098;-67
2022/06/05 00:57:09;;;;;;;16.00;9.10;;;11.00;99.90;;;;;;4805937;29;20065;-67
2022/06/05 00:59:35;;;;;;;12.05;9.43;;;11.10;99.90;;;;;;4786998;29;20058;-67
2022/06/05 01:02:01;;;;;;;13.10;9.98;;;11.00;99.90;;;;;;4806683;29;20059;-66
2022/06/05 01:04:28;;;;;;;15.13;9.98;;;11.00;99.90;;;;;;4791074;29;20069;-66
2022/06/05 01:06:54;;;;;;;12.38;9.35;;;11.00;99.90;;;;;;4791319;29;20126;-66
2022/06/05 01:09:19;;;;;;;15.10;10.77;;;11.00;99.90;;;;;;4790925;29;20133;-66
2022/06/05 01:12:03;;;;;;;13.70;9.80;;;11.00;99.90;;;;;;4790544;29;20411;-66
2022/06/05 01:15:06;;;;;;;14.02;9.95;;;11.00;99.90;;;;;;4776649;29;20050;-66
2022/06/05 01:17:52;;;;;;;16.08;9.90;;;11.00;99.90;;;;;;4805723;29;20051;-67
2022/06/05 01:20:43;;;;;;;16.05;10.40;;;11.00;99.90;;;;;;4791271;29;20059;-65
2022/06/05 01:23:37;;;;;;;16.35;10.68;;;11.00;99.90;;;;;;4805819;29;20357;-67
2022/06/05 01:26:15;;;;;;;14.32;10.60;;;11.00;99.90;;;;;;4790285;29;20058;-67
2022/06/05 01:29:05;;;;;;;16.02;10.45;;;11.00;99.90;;;;;;4803460;29;20051;-66
2022/06/05 01:31:42;;;;;;;19.98;11.90;;;11.00;99.90;;;;;;4789104;29;20082;-67
2022/06/05 01:34:33;;;;;;;16.58;10.93;;;11.10;99.90;;;;;;4807220;29;20058;-66
2022/06/05 01:37:17;;;;;;;14.85;11.32;;;11.00;99.90;;;;;;4790000;29;20133;-66
2022/06/05 01:40:02;;;;;;;18.48;10.98;;;11.00;99.90;;;;;;4791082;29;20058;-67
2022/06/05 01:42:37;;;;;;;17.25;10.50;;;11.00;99.90;;;;;;4789973;29;20139;-66
2022/06/05 01:45:09;;;;;;;20.02;10.13;;;11.00;99.90;;;;;;4790909;29;20066;-65
2022/06/05 01:47:44;;;;;;;17.52;10.13;;;11.00;99.90;;;;;;4806690;29;20154;-66
2022/06/05 01:50:36;;;;;;;16.25;10.63;;;11.00;99.90;;;;;;4789122;29;20389;-66
2022/06/05 01:53:21;;;;;;;17.80;10.80;;;10.90;99.90;;;;;;4801271;29;20046;-65
2022/06/05 01:56:07;;;;;;;17.88;10.82;;;10.90;99.90;;;;;;4807002;29;20377;-67
2022/06/05 01:58:39;;;;;;;20.10;12.15;;;10.90;99.90;;;;;;4796437;29;20051;-66
2022/06/05 02:01:10;;;;;;;16.70;10.80;;;10.90;99.90;;;;;;4804448;29;20462;-66
2022/06/05 02:03:42;;;;;;;19.92;11.18;;;10.90;99.90;;;;;;4805723;29;20051;-66
2022/06/05 02:06:15;;;;;;;16.00;10.38;;;10.90;99.90;;;;;;4806887;29;20057;-67
2022/06/05 02:09:05;;;;;;;18.38;11.10;;;10.90;99.90;;;;;;4774956;29;20373;-66
2022/06/05 02:11:32;;;;;;;19.02;11.02;;;10.90;99.90;;;;;;4785970;29;20051;-66
2022/06/05 02:14:05;;;;;;;16.40;10.82;;;10.90;99.90;;;;;;4789030;29;20180;-67
2022/06/05 02:16:31;;;;;;;;;;;10.90;99.90;;;;;;4792723;29;20632;-66
2022/06/05 02:19:00;;;;;;;15.38;9.95;;;10.80;99.90;;;;;;4772445;30;19982;-67
2022/06/05 02:21:26;;;;;;;18.08;10.52;;;10.80;99.90;;;;;;4788370;30;20058;-67
2022/06/05 02:23:52;;;;;;;17.17;11.02;;;10.80;99.90;;;;;;4784938;29;20408;-66
2022/06/05 02:26:17;;;;;;;19.92;11.65;;;10.80;99.90;;;;;;4790192;29;20061;-66
2022/06/05 02:28:43;;;;;;;20.08;11.27;;;10.80;99.90;;;;;;4805144;29;20043;-66
2022/06/05 02:31:43;;;;;;;20.13;11.70;;;10.80;99.90;;;;;;4804899;29;20549;-65
2022/06/05 02:34:26;;;;;;;17.45;10.65;;;10.80;99.90;;;;;;4787948;29;20073;-66
2022/06/05 02:37:19;;;;;;;15.73;10.10;;;10.80;99.90;;;;;;4806406;29;20058;-66
2022/06/05 02:40:06;;;;;;;15.25;10.48;;;10.80;99.90;;;;;;4789747;29;20443;-66
2022/06/05 02:42:36;;;;;;;17.45;11.85;;;10.80;99.90;;;;;;4789170;29;20059;-66
2022/06/05 02:45:18;;;;;;;16.33;12.18;;;10.80;99.90;;;;;;4804561;29;20043;-65
2022/06/05 02:47:50;;;;;;;17.08;12.27;;;10.80;99.90;;;;;;4805799;29;20071;-66
2022/06/05 02:50:36;;;;;;;19.60;11.02;;;10.80;99.90;;;;;;4789573;29;20065;-67
2022/06/05 02:53:05;;;;;;;17.52;11.13;;;10.80;99.90;;;;;;4805122;29;20078;-67
2022/06/05 02:55:31;;;;;;;18.80;11.90;;;10.90;99.90;;;;;;4788251;29;20491;-65
2022/06/05 02:57:57;;;;;;;19.90;12.02;;;10.80;99.90;;;;;;4804209;29;20047;-67
2022/06/05 03:04:23;;;;;;;17.58;11.02;;;10.80;99.90;;;;;;4804478;29;20114;-66
2022/06/05 03:06:49;;;;;;;18.17;11.15;;;10.90;99.90;;;;;;4789041;29;20051;-66
2022/06/05 03:09:15;;;;;;;17.08;11.35;;;10.90;99.90;;;;;;4788430;29;20571;-67
2022/06/05 03:11:42;;;;;;;19.45;11.77;;;10.80;99.90;;;;;;4789564;29;20054;-66
2022/06/05 03:14:08;;;;;;;17.48;10.50;;;10.90;99.90;;;;;;4806072;29;20115;-66
2022/06/05 03:16:34;;;;;;;21.42;12.10;;;10.90;99.90;;;;;;4805425;29;20047;-66
2022/06/05 03:19:00;;;;;;;21.27;11.85;;;10.90;99.90;;;;;;4803583;29;20559;-67
2022/06/05 03:21:25;;;;;;;18.42;11.13;;;10.90;99.90;;;;;;4804952;29;20050;-65
2022/06/05 03:23:51;;;;;;;20.25;12.35;;;10.90;99.90;;;;;;4788650;29;20061;-67
2022/06/05 03:26:17;;;;;;;21.13;11.98;;;10.90;99.90;;;;;;4789573;29;20119;-67
2022/06/05 03:28:42;;;;;;;19.35;11.65;;;11.00;99.90;;;;;;4805764;29;20098;-65
2022/06/05 03:31:09;;;;;;;19.10;11.55;;;11.00;99.90;;;;;;4789168;29;20108;-66
2022/06/05 03:33:37;;;;;;;16.95;11.23;;;11.00;99.90;;;;;;4803537;29;20061;-67
2022/06/05 03:36:12;;;;;;;18.75;12.10;;;11.00;99.90;;;;;;4805684;29;20142;-67
2022/06/05 03:38:38;;;;;;;17.92;11.60;;;11.00;99.90;;;;;;4805656;29;20487;-67
2022/06/05 03:41:04;;;;;;;17.05;12.10;;;11.10;99.90;;;;;;4789611;29;20164;-65
2022/06/05 03:43:30;;;;;;;16.75;11.80;;;11.10;99.90;;;;;;4808949;29;20058;-67
2022/06/05 03:46:05;;;;;;;21.10;12.07;;;11.10;99.90;;;;;;4807087;29;20051;-66
2022/06/05 03:48:31;;;;;;;17.80;11.75;;;11.10;99.90;;;;;;4760409;30;20357;-66
2022/06/05 03:50:57;;;;;;;17.98;11.32;;;11.20;99.90;;;;;;4791311;30;20055;-66
2022/06/05 03:53:23;;;;;;;20.10;12.00;;;11.20;99.90;;;;;;4790835;29;20092;-65
2022/06/05 03:55:48;;;;;;;17.92;11.23;;;11.20;99.90;;;;;;4808321;29;20150;-66
2022/06/05 03:58:14;;;;;;;17.48;11.23;;;11.20;99.90;;;;;;4807702;29;20051;-66
2022/06/05 04:00:41;;;;;;;18.77;12.30;;;11.20;99.90;;;;;;4792091;29;20043;-67
2022/06/05 04:03:07;;;;;;;18.30;12.00;;;11.20;99.90;;;;;;4808398;29;20102;-65
2022/06/05 04:05:33;;;;;;;16.80;11.63;;;11.30;99.90;;;;;;4808868;29;20047;-65
2022/06/05 04:07:59;;;;;;;19.02;11.23;;;11.30;99.90;;;;;;4791595;29;20442;-65
2022/06/05 04:10:24;;;;;;;18.65;12.25;;;11.40;99.90;;;;;;4808873;29;20061;-65
2022/06/05 04:12:50;;;;;;;17.08;11.52;;;11.50;99.90;;;;;;4807571;29;20053;-66
2022/06/05 04:15:16;;;;;;;19.90;12.35;;;11.50;99.90;;;;;;4792738;29;20150;-66
2022/06/05 04:17:42;;;;;;;16.35;11.48;;;11.50;99.90;;;;;;4807987;29;20058;-65
2022/06/05 04:20:09;;;;;;;18.80;12.25;;;11.50;99.90;;;;;;4807514;29;20047;-66
2022/06/05 04:22:36;;;;;;;18.17;11.43;;;11.60;99.90;;;;;;4808177;29;20109;-66
2022/06/05 04:25:04;;;;;;;23.63;12.32;;;11.60;99.90;;;;;;4808615;29;20058;-65
2022/06/05 04:27:30;;;;;;;14.63;11.57;;;11.70;99.90;;;;;;4805677;29;20134;-66
2022/06/05 04:29:58;;;;;;;17.67;11.25;;;11.70;99.90;;;;;;4791290;29;20472;-67
2022/06/05 04:32:24;;;;;;;17.60;11.48;;;11.80;99.90;;;;;;4791691;29;20051;-66
2022/06/05 04:34:50;;;;;;;18.05;11.90;;;11.90;99.90;;;;;;4792518;29;20430;-66
2022/06/05 04:37:16;;;;;;;18.25;12.20;;;12.00;99.90;;;;;;4808224;29;20059;-66
2022/06/05 04:39:41;;;;;;;14.75;10.80;;;12.10;99.90;;;;;;4791973;29;20365;-68
2022/06/05 04:42:07;;;;;;;15.90;11.27;;;12.20;99.90;;;;;;4805883;29;20055;-67
2022/06/05 04:44:32;;;;;;;18.60;12.00;;;12.30;99.90;;;;;;4791027;29;20054;-66
2022/06/05 04:46:58;;;;;;;16.67;11.02;;;12.40;99.90;;;;;;4807451;29;20088;-66
2022/06/05 04:49:24;;;;;;;16.63;11.80;;;12.50;99.90;;;;;;4792237;29;20055;-66
2022/06/05 04:51:50;;;;;;;14.07;10.98;;;12.60;99.90;;;;;;4807893;29;20054;-65
2022/06/05 04:54:16;;;;;;;15.48;11.27;;;12.70;99.90;;;;;;4806518;29;20422;-66
2022/06/05 04:56:42;;;;;;;15.32;11.18;;;12.80;99.90;;;;;;4776137;29;20061;-67
2022/06/05 04:59:09;;;;;;;13.95;10.88;;;12.90;99.90;;;;;;4806277;29;20471;-66
2022/06/05 05:01:37;;;;;;;12.57;10.80;;;13.00;99.90;;;;;;4804131;29;20393;-65
2022/06/05 05:04:05;;;;;;;11.65;10.05;;;13.10;99.90;;;;;;4804796;29;20050;-66
2022/06/05 05:06:32;;;;;;;14.57;10.73;;;13.20;99.90;;;;;;4787977;29;20050;-67
2022/06/05 05:08:58;;;;;;;16.00;11.00;;;13.30;99.90;;;;;;4806156;29;20059;-66
2022/06/05 05:11:24;;;;;;;19.38;11.65;;;13.30;99.90;;;;;;4789415;29;20441;-67
2022/06/05 05:13:53;;;;;;;14.63;11.23;;;13.40;99.90;;;;;;4807002;29;20050;-68
2022/06/05 05:16:19;;;;;;;21.92;10.95;;;13.40;99.90;;;;;;4806424;29;20484;-66
2022/06/05 05:18:44;;;;;;;16.25;10.88;;;13.50;99.90;;;;;;4805452;29;20051;-66
2022/06/05 05:21:14;;;;;;;14.48;10.55;;;13.60;99.90;;;;;;4806111;29;20058;-67
2022/06/05 05:23:40;;;;;;;14.40;11.57;;;13.60;99.90;;;;;;4806586;29;20117;-67
2022/06/05 05:26:24;;;;;;;13.23;11.45;;;13.70;99.90;;;;;;4802359;29;20061;-66
2022/06/05 05:28:50;;;;;;;15.38;11.82;;;13.70;99.90;;;;;;4784677;29;20503;-67
2022/06/05 05:31:26;;;;;;;14.85;10.85;;;13.70;99.90;;;;;;4781814;29;20043;-66
2022/06/05 05:33:52;;;;;;;13.38;10.98;;;13.80;99.90;;;;;;4791543;29;20047;-67
2022/06/05 05:36:20;;;;;;;15.18;11.10;;;13.90;99.90;;;;;;4804036;29;20046;-66
2022/06/05 05:44:15;;;;;;;14.38;11.05;;;14.00;99.90;;;;;;4799596;29;20143;-66
2022/06/05 05:46:42;;;;;;;15.68;11.38;;;14.20;99.90;;;;;;4795783;29;20074;-66
2022/06/05 05:49:10;;;;;;;12.98;10.65;;;14.20;99.90;;;;;;4799743;29;20046;-66
2022/06/05 05:51:36;;;;;;;14.40;10.98;;;14.20;99.90;;;;;;4795549;29;20434;-66
2022/06/05 05:54:03;;;;;;;15.57;11.40;;;14.30;99.90;;;;;;4796774;29;20051;-66
2022/06/05 05:56:29;;;;;;;13.95;11.25;;;14.40;99.90;;;;;;4797947;29;20054;-67
2022/06/05 05:58:55;;;;;;;15.30;11.77;;;14.50;99.90;;;;;;4804826;29;20046;-68
2022/06/05 06:01:21;;;;;;;14.93;10.57;;;14.70;99.90;;;;;;4804945;29;20065;-66
2022/06/05 06:03:47;;;;;;;15.60;11.18;;;15.00;99.90;;;;;;4806098;29;20055;-67
2022/06/05 06:06:12;;;;;;;14.80;11.13;;;15.20;99.90;;;;;;4789722;29;20125;-65
2022/06/05 06:08:38;;;;;;;16.23;11.10;;;15.40;99.90;;;;;;4790119;29;20135;-66
2022/06/05 06:11:04;;;;;;;14.65;11.18;;;15.50;99.90;;;;;;4806102;29;20042;-68
2022/06/05 06:13:30;;;;;;;16.33;11.48;;;15.60;99.90;;;;;;4804837;29;20053;-67
2022/06/05 06:15:56;;;;;;;15.55;10.98;;;15.70;99.90;;;;;;4804631;29;20135;-66
2022/06/05 06:18:21;;;;;;;12.80;11.13;;;15.80;99.90;;;;;;4804893;29;20469;-65
2022/06/05 06:20:47;;;;;;;14.10;10.82;;;15.90;99.90;;;;;;4806771;29;20090;-68
2022/06/05 06:23:14;;;;;;;13.95;10.82;;;16.00;99.90;;;;;;4789991;29;20074;-66
2022/06/05 06:25:41;;;;;;;13.27;10.60;;;16.10;99.90;;;;;;4790066;29;20153;-66
2022/06/05 06:28:07;;;;;;;11.57;10.13;;;16.10;99.90;;;;;;4788081;29;20077;-66
2022/06/05 06:30:34;;;;;;;14.32;11.02;;;16.20;99.90;;;;;;4805882;29;20485;-66
2022/06/05 06:32:59;;;;;;;13.90;11.18;;;16.20;99.90;;;;;;4806007;29;20039;-66
2022/06/05 06:35:25;;;;;;;13.98;10.95;;;16.20;99.90;;;;;;4790094;29;20423;-66
2022/06/05 06:37:51;;;;;;;14.88;10.85;;;16.30;99.90;;;;;;4789359;29;20050;-66
2022/06/05 06:40:17;;;;;;;13.10;10.30;;;16.40;99.90;;;;;;4805583;29;20065;-67
2022/06/05 06:42:42;;;;;;;14.25;10.68;;;16.40;99.90;;;;;;4804963;29;20053;-67
2022/06/05 06:45:08;;;;;;;11.90;10.40;;;16.40;99.90;;;;;;4804963;29;20050;-66
2022/06/05 06:47:34;;;;;;;13.05;11.00;;;16.50;99.90;;;;;;4805340;29;20096;-66
2022/06/05 06:50:00;;;;;;;11.25;9.90;;;16.60;99.90;;;;;;4805650;29;20561;-66
2022/06/05 06:52:25;;;;;;;11.95;10.38;;;16.70;99.90;;;;;;4805018;29;20203;-65
2022/06/05 06:54:53;;;;;;;14.18;11.15;;;16.90;99.90;;;;;;4806749;29;20050;-67
2022/06/05 06:57:19;;;;;;;14.45;10.82;;;17.00;99.90;;;;;;4805570;29;20062;-66
2022/06/05 06:59:44;;;;;;;12.32;10.38;;;17.10;99.90;;;;;;4805100;29;20046;-67
2022/06/05 07:02:10;;;;;;;12.02;10.38;;;17.20;99.90;;;;;;4789161;29;20058;-66
2022/06/05 07:04:35;;;;;;;13.57;10.25;;;17.30;99.90;;;;;;4789550;29;20051;-66
2022/06/05 07:07:01;;;;;;;10.02;9.02;;;17.40;99.90;;;;;;4789433;29;20544;-66
2022/06/05 07:09:27;;;;;;;13.30;10.15;;;17.50;99.90;;;;;;4790320;29;20444;-67
2022/06/05 07:11:53;;;;;;;13.80;10.65;;;17.60;99.90;;;;;;4805734;29;20042;-65
2022/06/05 07:14:18;;;;;;;14.00;10.20;;;17.80;99.90;;;;;;4805898;29;20393;-67
2022/06/05 07:16:44;;;;;;;12.73;9.85;;;17.80;99.90;;;;;;4807934;29;20058;-67
2022/06/05 07:19:10;;;;;;;11.13;9.60;;;17.90;99.90;;;;;;4793282;29;20054;-67
2022/06/05 07:21:36;;;;;;;11.38;9.75;;;18.00;99.90;;;;;;4793726;29;20445;-68
2022/06/05 07:24:01;;;;;;;10.52;9.18;;;18.10;99.90;;;;;;4793065;29;20490;-68
2022/06/05 07:26:48;;;;;;;10.35;8.80;;;18.20;99.90;;;;;;4782688;29;20066;-67
2022/06/05 07:29:14;;;;;;;10.57;9.25;;;18.40;99.90;;;;;;4767797;30;20047;-68
2022/06/05 07:31:40;;;;;;;12.93;9.27;;;18.50;99.90;;;;;;4804693;29;20042;-66
2022/06/05 07:34:08;;;;;;;10.95;8.57;;;18.50;99.90;;;;;;4808707;29;20484;-66
2022/06/05 07:36:33;;;;;;;10.10;9.00;;;18.70;99.90;;;;;;4809189;29;20434;-66
2022/06/05 07:39:02;;;;;;;10.43;8.77;;;18.90;99.90;;;;;;4808833;29;20123;-67
2022/06/05 07:41:32;;;;;;;10.85;9.02;;;19.00;99.90;;;;;;4809260;29;20085;-67
2022/06/05 07:44:00;;;;;;;9.38;8.48;;;19.10;99.90;;;;;;4792910;29;20059;-67
2022/06/05 07:46:27;;;;;;;9.52;8.57;;;19.00;99.90;;;;;;4791348;29;20051;-68
2022/06/05 07:48:53;;;;;;;11.50;8.70;;;19.10;99.90;;;;;;4808762;29;20057;-67
2022/06/05 07:54:34;;;;;;;9.48;8.40;;;19.40;99.90;;;;;;4792781;29;20133;-66
2022/06/05 07:57:08;;;;;;;9.63;8.60;;;19.40;99.90;;;;;;4777388;29;20099;-68
2022/06/05 07:59:37;;;;;;;8.95;8.07;;;19.40;99.90;;;;;;4792719;29;20362;-65
2022/06/05 08:02:08;;;;;;;8.63;7.60;;;19.40;99.90;;;;;;4808056;29;20384;-66
2022/06/05 08:04:35;;;;;;;8.85;7.82;;;19.60;99.90;;;;;;4792665;29;20055;-66
2022/06/05 08:07:03;;;;;;;8.73;7.43;;;19.60;99.90;;;;;;4792142;29;20081;-66
2022/06/05 08:09:30;;;;;;;9.52;8.52;;;19.70;99.90;;;;;;4792688;29;20072;-66
2022/06/05 08:11:56;;;;;;;9.65;7.43;;;19.90;99.90;;;;;;4776399;29;20043;-67
2022/06/05 08:14:44;;;;;;;8.75;7.10;;;20.00;99.90;;;;;;4791770;29;20116;-66
2022/06/05 08:17:13;;;;;;;7.85;7.05;;;20.00;99.90;;;;;;4775424;29;20047;-66
2022/06/05 08:19:41;;;;;;;8.98;7.38;;;20.20;99.90;;;;;;4808319;29;20106;-66
2022/06/05 08:22:09;;;;;;;7.53;6.82;;;20.40;99.90;;;;;;4808049;29;20494;-67
2022/06/05 08:24:35;;;;;;;7.05;6.18;;;20.40;99.90;;;;;;4808418;29;20156;-66
2022/06/05 08:27:03;;;;;;;7.72;6.93;;;20.50;99.90;;;;;;4791374;29;20093;-67
2022/06/05 08:29:29;;;;;;;7.88;7.07;;;20.60;99.90;;;;;;4808007;29;20042;-66
2022/06/05 08:31:54;;;;;;;9.02;8.13;;;20.60;99.90;;;;;;4791523;29;20058;-67
2022/06/05 08:34:21;;;;;;;8.57;7.78;;;20.60;99.90;;;;;;4808449;29;20038;-67
2022/06/05 08:43:46;;;;;;;7.70;6.93;;;20.50;99.90;;;;;;4791478;29;20043;-67
2022/06/05 08:46:24;;;;;;;8.10;7.30;;;20.60;99.90;;;;;;4807658;29;20062;-66
2022/06/05 08:49:14;;;;;;;8.57;7.45;;;20.60;99.90;;;;;;4807398;29;20038;-66
2022/06/05 08:52:05;;;;;;;7.63;6.80;;;20.60;99.90;;;;;;4807604;29;20451;-66
2022/06/05 08:55:01;;;;;;;7.63;6.57;;;20.50;99.90;;;;;;4807473;29;20059;-66
2022/06/05 08:57:54;;;;;;;7.63;6.93;;;20.90;99.90;;;;;;4807346;29;20405;-68
2022/06/05 09:00:41;;;;;;;6.95;6.30;;;21.20;99.90;;;;;;4807609;29;20051;-68
2022/06/05 09:03:19;;;;;;;8.88;8.07;;;21.40;99.90;;;;;;4807101;29;20061;-65
2022/06/05 09:06:19;;;;;;;8.60;7.18;;;21.40;99.90;;;;;;4791236;29;20047;-64
2022/06/05 09:08:48;;;;;;;8.55;7.65;;;21.60;99.90;;;;;;4807009;29;20058;-68
2022/06/05 09:11:41;;;;;;;8.30;7.50;;;21.50;99.90;;;;;;4791216;29;20055;-69
2022/06/05 09:14:22;;;;;;;9.02;7.38;;;21.70;99.90;;;;;;4791189;29;20484;-67
2022/06/05 09:16:53;;;;;;;7.53;6.82;;;21.60;99.90;;;;;;4807286;29;20059;-67
2022/06/05 09:19:44;;;;;;;8.40;7.20;;;21.70;99.90;;;;;;4807545;29;20085;-66
2022/06/05 09:22:33;;;;;;;8.60;7.65;;;21.90;99.90;;;;;;4791482;29;20055;-66
2022/06/05 09:25:05;;;;;;;9.05;7.57;;;22.00;99.90;;;;;;4790421;29;20325;-66
2022/06/05 09:27:31;;;;;;;;;;;21.80;99.90;;;;;;4806780;29;20477;-67
2022/06/05 09:30:05;;;;;;;8.38;7.40;;;22.10;99.90;;;;;;4789166;29;19923;-66
2022/06/05 09:32:42;;;;;;;7.72;7.03;;;22.20;99.90;;;;;;4790768;29;20131;-67
2022/06/05 09:39:55;;;;;;;7.78;6.97;;;22.40;99.90;;;;;;4804643;29;20104;-68
2022/06/05 09:42:42;;;;;;;8.82;6.90;;;22.50;99.90;;;;;;4790069;29;20050;-67
2022/06/05 09:45:33;;;;;;;8.27;7.30;;;22.70;99.90;;;;;;4806057;29;20054;-68
2022/06/05 09:48:05;;;;;;;8.15;7.13;;;22.60;99.90;;;;;;4773873;29;20229;-67
2022/06/05 09:50:31;;;;;;;7.18;6.47;;;22.60;99.90;;;;;;4804268;29;20432;-66
2022/06/05 09:52:57;;;;;;;8.15;6.53;;;22.80;99.90;;;;;;4789613;29;20093;-65
2022/06/05 09:55:50;;;;;;;7.63;6.93;;;22.60;99.90;;;;;;4804065;29;20069;-66
2022/06/05 09:58:39;;;;;;;8.10;7.30;;;22.60;99.90;;;;;;4790098;29;20047;-66
2022/06/05 10:01:28;;;;;;;9.85;6.93;;;22.60;99.90;;;;;;4804855;29;20154;-66
2022/06/05 10:03:55;;;;;;;7.60;6.90;;;22.50;99.90;;;;;;4774045;29;20054;-66
2022/06/05 10:06:35;;;;;;;7.65;6.85;;;22.50;99.90;;;;;;4806038;29;20089;-66
2022/06/05 10:09:18;;;;;;;7.57;6.85;;;22.50;99.90;;;;;;4806798;29;20119;-66
2022/06/05 10:11:57;;;;;;;7.63;6.93;;;22.50;99.90;;;;;;4806724;29;20055;-65
2022/06/05 10:14:41;;;;;;;7.38;6.68;;;22.50;99.90;;;;;;4806757;29;20051;-65
2022/06/05 10:17:36;;;;;;;7.28;6.65;;;22.50;99.90;;;;;;4803884;29;20058;-65
2022/06/05 10:20:13;;;;;;;8.00;7.20;;;22.50;99.90;;;;;;4788787;29;20131;-65
2022/06/05 10:22:53;;;;;;;9.18;7.22;;;22.50;99.90;;;;;;4804310;29;20063;-64
2022/06/05 10:25:36;;;;;;;7.82;7.03;;;22.40;99.90;;;;;;4804654;29;20054;-64
2022/06/05 10:28:17;;;;;;;7.93;6.65;;;22.50;99.90;;;;;;4806101;29;20447;-65
2022/06/05 10:31:06;;;;;;;8.13;6.63;;;22.50;99.90;;;;;;4788642;30;20059;-65
2022/06/05 10:33:44;;;;;;;7.05;6.35;;;22.60;99.90;;;;;;4771989;30;20059;-65
2022/06/05 10:36:32;;;;;;;7.10;6.50;;;22.60;99.90;;;;;;4792949;29;20054;-66
2022/06/05 10:39:03;;;;;;;7.03;6.43;;;22.50;99.90;;;;;;4786844;29;20063;-65
2022/06/05 10:45:18;;;;;;;7.47;6.20;;;22.60;99.90;;;;;;4779846;29;20140;-65
2022/06/05 10:48:04;;;;;;;8.45;7.45;;;22.80;99.90;;;;;;4800647;29;20043;-65
2022/06/05 10:50:43;;;;;;;8.93;6.78;;;22.90;99.90;;;;;;4787246;29;20054;-65
2022/06/05 10:53:25;;;;;;;7.20;6.50;;;23.00;99.90;;;;;;4787507;29;20051;-65
2022/06/05 10:56:18;;;;;;;7.10;6.57;;;23.10;99.90;;;;;;4804427;29;20077;-65
2022/06/05 10:58:59;;;;;;;7.88;7.18;;;23.20;99.90;;;;;;4786877;30;20146;-65
2022/06/05 11:02:16;;;;;;;8.20;7.07;;;23.30;99.90;;;;;;4796453;29;20070;-65
2022/06/05 11:04:59;;;;;;;7.32;6.72;;;23.30;99.90;;;;;;4812665;29;20061;-65
2022/06/05 11:07:24;;;;;;;8.75;7.32;;;23.30;99.90;;;;;;4788637;29;20162;-66
2022/06/05 11:10:14;;;;;;;7.22;6.38;;;23.30;99.90;;;;;;4805589;29;20390;-66
2022/06/05 11:15:59;;;;;;;7.80;7.20;;;23.30;99.90;;;;;;4781126;29;20061;-66
2022/06/05 11:18:47;;;;;;;8.13;7.43;;;23.30;99.90;;;;;;4804601;29;20046;-66
2022/06/05 11:21:39;;;;;;;8.30;7.50;;;23.50;99.90;;;;;;4804393;29;20489;-66
2022/06/05 11:24:39;;;;;;;8.48;7.65;;;23.30;99.90;;;;;;4787806;29;20055;-66
2022/06/05 11:27:16;;;;;;;8.85;7.70;;;23.30;99.90;;;;;;4805858;29;20043;-66
2022/06/05 11:38:23;;;;;;;8.60;7.70;;;23.30;99.90;;;;;;4803949;29;20030;-65
2022/06/05 11:41:12;;;;;;;10.20;7.50;;;23.40;99.90;;;;;;4787212;29;20111;-66
2022/06/05 11:43:39;;;;;;;7.90;7.05;;;23.40;99.90;;;;;;4787565;29;20533;-65
2022/06/05 11:46:18;;;;;;;7.97;7.28;;;23.40;99.90;;;;;;4802390;29;20047;-66
2022/06/05 11:49:12;;;;;;;9.02;7.50;;;23.50;99.90;;;;;;4805423;29;20043;-66
2022/06/05 11:52:04;;;;;;;7.45;6.68;;;23.60;99.90;;;;;;4788793;29;20130;-65
2022/06/05 11:54:39;;;;;;;7.50;6.90;;;23.60;99.90;;;;;;4796858;29;20111;-66
2022/06/05 11:57:22;;;;;;;7.72;7.13;;;23.60;99.90;;;;;;4802961;29;20164;-65
2022/06/05 12:00:17;;;;;;;8.23;7.40;;;23.70;99.90;;;;;;4801064;29;20050;-66
2022/06/05 12:02:48;;;;;;;8.13;7.25;;;23.80;99.90;;;;;;4802861;29;20449;-66
2022/06/05 12:05:25;;;;;;;8.33;7.63;;;23.60;99.90;;;;;;4808349;29;20545;-66
2022/06/05 12:08:01;;;;;;;8.40;7.70;;;23.60;99.60;;;;;;4808661;29;20494;-65
2022/06/05 12:10:29;;;;;;;8.05;7.15;;;23.60;99.90;;;;;;4792692;29;20083;-65
2022/06/05 12:13:09;;;;;;;8.48;7.68;;;23.50;99.90;;;;;;4808720;29;20063;-65
2022/06/05 12:16:17;;;;;;;8.93;7.90;;;23.60;99.90;;;;;;4806801;29;20051;-64
2022/06/05 12:21:59;;;;;;;11.18;8.70;;;23.50;99.90;;;;;;4791964;29;20080;-64
2022/06/05 12:24:37;;;;;;;7.45;6.85;;;23.40;99.90;;;;;;4792330;29;20327;-64
2022/06/05 12:27:11;;;;;;;8.27;7.45;;;23.40;99.90;;;;;;4808329;29;20043;-65
2022/06/05 12:30:28;;;;;;;7.57;6.97;;;23.40;99.90;;;;;;4792087;29;20050;-64
2022/06/05 12:33:12;;;;;;;7.53;6.93;;;23.40;99.90;;;;;;4787875;29;20512;-65
2022/06/05 12:35:44;;;;;;;7.95;7.35;;;23.40;99.90;;;;;;4808484;29;20042;-66
2022/06/05 12:38:34;;;;;;;8.50;7.78;;;23.40;99.90;;;;;;4791837;29;20473;-66
2022/06/05 12:41:19;;;;;;;8.32;7.60;;;23.40;99.90;;;;;;4791927;29;20055;-66
2022/06/05 12:44:13;;;;;;;7.88;6.88;;;23.50;99.90;;;;;;4807483;29;20087;-65
2022/06/05 12:46:45;;;;;;;8.02;7.28;;;23.60;99.90;;;;;;4803939;29;20484;-65
2022/06/05 12:49:23;;;;;;;10.10;7.20;;;23.60;99.90;;;;;;4788943;29;20053;-65
2022/06/05 12:52:28;;;;;;;7.60;6.97;;;23.60;99.90;;;;;;4808025;29;20042;-66
2022/06/05 12:54:56;;;;;;;7.40;6.80;;;23.60;99.90;;;;;;4719836;30;20106;-65
2022/06/05 12:57:31;;;;;;;8.43;7.45;;;23.70;99.90;;;;;;4806344;29;20047;-65
2022/06/05 13:00:15;;;;;;;8.65;7.63;;;23.60;99.90;;;;;;4805737;29;20499;-67
2022/06/05 13:02:51;;;;;;;7.32;6.70;;;23.60;99.90;;;;;;4791986;29;20361;-66
2022/06/05 13:05:17;;;;;;;7.70;7.07;;;23.70;99.90;;;;;;4789909;30;20389;-67
2022/06/05 13:07:55;;;;;;;7.68;7.03;;;23.80;99.90;;;;;;4773262;30;20092;-66
2022/06/05 13:10:59;;;;;;;8.68;7.20;;;23.80;99.90;;;;;;4795738;29;20487;-67
2022/06/05 13:13:40;;;;;;;7.45;6.80;;;23.80;99.90;;;;;;4808230;29;20055;-66
2022/06/05 13:16:14;;;;;;;7.15;6.45;;;23.90;99.90;;;;;;4806693;29;20565;-66
2022/06/05 13:26:29;;;;;;;7.07;6.45;;;24.20;99.90;;;;;;4807334;29;20191;-66
2022/06/05 13:29:45;;;;;;;7.60;6.80;;;24.40;99.90;;;;;;4807335;29;20131;-66
2022/06/05 13:32:37;;;;;;;7.35;6.38;;;24.50;99.90;;;;;;4788646;30;20476;-63
2022/06/05 13:35:28;;;;;;;7.80;7.07;;;24.50;99.90;;;;;;4789118;30;20505;-64
2022/06/05 13:42:10;;;;;;;7.68;7.07;;;24.50;99.90;;;;;;4789113;30;20066;-64
2022/06/05 13:48:36;;;;;;;6.88;6.25;;;24.50;99.90;;;;;;4806888;29;20061;-65
2022/06/05 13:51:17;;;;;;;6.90;6.30;;;24.50;99.90;;;;;;4806482;29;20447;-64
2022/06/05 13:57:34;;;;;;;6.35;5.85;;;24.30;97.30;;;;;;4806974;29;20136;-66
2022/06/05 14:00:04;;;;;;;6.95;6.25;;;24.20;88.70;;;;;;4790446;29;20046;-65
2022/06/05 14:02:34;;;;;;;7.38;6.32;;;24.10;94.90;;;;;;4806260;29;20050;-64
2022/06/05 14:05:20;;;;;;;6.70;6.10;;;24.10;93.80;;;;;;4789182;29;20552;-64
2022/06/05 14:07:51;;;;;;;6.80;6.13;;;24.10;92.00;;;;;;4801226;29;20428;-65
2022/06/05 14:10:32;;;;;;;6.30;5.90;;;24.00;93.10;;;;;;4805596;29;20058;-66
2022/06/05 14:13:00;;;;;;;6.45;5.95;;;24.00;91.70;;;;;;4815131;29;20103;-65
2022/06/05 14:15:40;;;;;;;7.75;6.25;;;23.90;94.70;;;;;;4790068;29;20046;-66
2022/06/05 14:18:18;;;;;;;6.38;5.95;;;23.80;92.20;;;;;;4804945;29;20422;-66
2022/06/05 14:20:49;;;;;;;6.55;6.05;;;23.80;94.60;;;;;;4805094;29;20043;-66
2022/06/05 14:23:20;;;;;;;6.55;5.95;;;23.70;95.80;;;;;;4803497;29;20440;-65
2022/06/05 14:25:50;;;;;;;6.78;6.28;;;23.70;97.00;;;;;;4804606;29;20051;-66
2022/06/05 14:28:19;;;;;;;6.75;6.07;;;23.60;96.60;;;;;;4795535;29;20075;-66
2022/06/05 14:30:57;;;;;;;6.47;5.88;;;23.60;97.60;;;;;;4805962;29;20054;-65
2022/06/05 14:33:37;;;;;;;6.65;6.05;;;23.60;98.30;;;;;;4805983;29;20055;-65